sensor_id;sensor_type;location;lat;lon;timestamp;pressure;altitude;pressure_sealevel;temperature;humidity
11648;BME280;5880;52.342;9.662;2023-11-21T00:00:20;100337.72;;;13.88;58.83
11648;BME280;5880;52.342;9.662;2023-11-21T00:02:46;100339.06;;;13.85;58.98
11648;BME280;5880;52.342;9.662;2023-11-21T00:05:14;100345.38;;;13.86;58.81
11648;BME280;5880;52.342;9.662;2023-11-21T00:07:41;100346.50;;;13.85;58.88
11648;BME280;5880;52.342;9.662;2023-11-21T00:10:08;100352.00;;;13.85;58.86
11648;BME280;5880;52.342;9.662;2023-11-21T00:12:34;100346.75;;;13.83;58.99
11648;BME280;5880;52.342;9.662;2023-11-21T00:15:01;100343.72;;;13.80;58.92
11648;BME280;5880;52.342;9.662;2023-11-21T00:17:27;100350.84;;;13.81;58.95
11648;BME280;5880;52.342;9.662;2023-11-21T00:19:53;100350.59;;;13.82;58.92
11648;BME280;5880;52.342;9.662;2023-11-21T00:22:19;100351.13;;;13.79;59.06
11648;BME280;5880;52.342;9.662;2023-11-21T00:24:45;100353.59;;;13.81;59.13
11648;BME280;5880;52.342;9.662;2023-11-21T00:27:11;100354.41;;;13.81;59.04
11648;BME280;5880;52.342;9.662;2023-11-21T00:29:37;100357.16;;;13.81;59.04
11648;BME280;5880;52.342;9.662;2023-11-21T00:32:05;100353.59;;;13.81;58.86
11648;BME280;5880;52.342;9.662;2023-11-21T00:34:31;100348.66;;;13.83;59.03
11648;BME280;5880;52.342;9.662;2023-11-21T00:36:57;100349.78;;;13.82;58.91
11648;BME280;5880;52.342;9.662;2023-11-21T00:39:23;100347.03;;;13.82;58.88
11648;BME280;5880;52.342;9.662;2023-11-21T00:41:49;100350.84;;;13.81;58.90
11648;BME280;5880;52.342;9.662;2023-11-21T00:44:15;100349.19;;;13.80;58.92
11648;BME280;5880;52.342;9.662;2023-11-21T00:46:41;100342.81;;;13.74;58.84
11648;BME280;5880;52.342;9.662;2023-11-21T00:49:07;100349.72;;;13.77;58.79
11648;BME280;5880;52.342;9.662;2023-11-21T00:51:33;100349.66;;;13.71;58.76
11648;BME280;5880;52.342;9.662;2023-11-21T00:53:59;100356.00;;;13.72;58.82
11648;BME280;5880;52.342;9.662;2023-11-21T00:56:25;100359.56;;;13.72;58.94
11648;BME280;5880;52.342;9.662;2023-11-21T00:58:51;100364.78;;;13.74;58.92
11648;BME280;5880;52.342;9.662;2023-11-21T01:01:18;100366.13;;;13.71;59.07
11648;BME280;5880;52.342;9.662;2023-11-21T01:03:47;100367.53;;;13.74;58.93
11648;BME280;5880;52.342;9.662;2023-11-21T01:06:14;100371.13;;;13.75;59.09
11648;BME280;5880;52.342;9.662;2023-11-21T01:08:40;100359.25;;;13.69;59.07
11648;BME280;5880;52.342;9.662;2023-11-21T01:11:06;100370.28;;;13.74;59.02
11648;BME280;5880;52.342;9.662;2023-11-21T01:13:34;100374.13;;;13.73;59.17
11648;BME280;5880;52.342;9.662;2023-11-21T01:16:00;100381.78;;;13.71;59.18
11648;BME280;5880;52.342;9.662;2023-11-21T01:18:26;100384.28;;;13.72;59.13
11648;BME280;5880;52.342;9.662;2023-11-21T01:20:52;100395.00;;;13.74;59.18
11648;BME280;5880;52.342;9.662;2023-11-21T01:23:19;100387.59;;;13.75;59.29
11648;BME280;5880;52.342;9.662;2023-11-21T01:25:45;100390.59;;;13.73;59.20
11648;BME280;5880;52.342;9.662;2023-11-21T01:28:10;100389.50;;;13.74;59.15
11648;BME280;5880;52.342;9.662;2023-11-21T01:30:36;100400.25;;;13.76;59.04
11648;BME280;5880;52.342;9.662;2023-11-21T01:33:03;100390.28;;;13.69;59.27
11648;BME280;5880;52.342;9.662;2023-11-21T01:35:29;100405.72;;;13.76;59.36
11648;BME280;5880;52.342;9.662;2023-11-21T01:37:56;100395.84;;;13.75;59.13
11648;BME280;5880;52.342;9.662;2023-11-21T01:40:21;100402.16;;;13.75;59.22
11648;BME280;5880;52.342;9.662;2023-11-21T01:42:47;100407.66;;;13.75;59.18
11648;BME280;5880;52.342;9.662;2023-11-21T01:45:14;100403.22;;;13.74;59.31
11648;BME280;5880;52.342;9.662;2023-11-21T01:47:41;100402.69;;;13.72;59.29
11648;BME280;5880;52.342;9.662;2023-11-21T01:50:13;100405.44;;;13.72;59.37
11648;BME280;5880;52.342;9.662;2023-11-21T01:52:39;100394.69;;;13.70;59.28
11648;BME280;5880;52.342;9.662;2023-11-21T01:55:08;100404.91;;;13.75;59.27
11648;BME280;5880;52.342;9.662;2023-11-21T01:57:36;100399.16;;;13.77;59.15
11648;BME280;5880;52.342;9.662;2023-11-21T02:00:05;100397.50;;;13.76;59.15
11648;BME280;5880;52.342;9.662;2023-11-21T02:02:43;100404.91;;;13.75;59.18
11648;BME280;5880;52.342;9.662;2023-11-21T02:05:11;100400.25;;;13.76;59.25
11648;BME280;5880;52.342;9.662;2023-11-21T02:07:39;100401.34;;;13.75;59.19
11648;BME280;5880;52.342;9.662;2023-11-21T02:10:07;100394.44;;;13.72;59.25
11648;BME280;5880;52.342;9.662;2023-11-21T02:12:33;100415.06;;;13.75;59.18
11648;BME280;5880;52.342;9.662;2023-11-21T02:15:02;100404.91;;;13.75;59.39
11648;BME280;5880;52.342;9.662;2023-11-21T02:17:31;100412.03;;;13.76;59.11
11648;BME280;5880;52.342;9.662;2023-11-21T02:19:58;100406.84;;;13.75;59.25
11648;BME280;5880;52.342;9.662;2023-11-21T02:22:27;100413.16;;;13.75;59.28
11648;BME280;5880;52.342;9.662;2023-11-21T02:24:54;100416.16;;;13.73;59.27
11648;BME280;5880;52.342;9.662;2023-11-21T02:27:20;100413.41;;;13.73;59.28
11648;BME280;5880;52.342;9.662;2023-11-21T02:29:49;100415.31;;;13.73;59.28
11648;BME280;5880;52.342;9.662;2023-11-21T02:32:14;100410.94;;;13.72;59.24
11648;BME280;5880;52.342;9.662;2023-11-21T02:34:42;100421.91;;;13.72;59.02
11648;BME280;5880;52.342;9.662;2023-11-21T02:37:09;100423.56;;;13.73;59.18
11648;BME280;5880;52.342;9.662;2023-11-21T02:39:35;100425.22;;;13.74;59.34
11648;BME280;5880;52.342;9.662;2023-11-21T02:42:01;100410.06;;;13.71;59.48
11648;BME280;5880;52.342;9.662;2023-11-21T02:44:27;100422.22;;;13.76;59.35
11648;BME280;5880;52.342;9.662;2023-11-21T02:46:52;100416.16;;;13.73;59.30
11648;BME280;5880;52.342;9.662;2023-11-21T02:49:18;100426.34;;;13.78;59.31
11648;BME280;5880;52.342;9.662;2023-11-21T02:51:43;100419.47;;;13.76;59.54
11648;BME280;5880;52.342;9.662;2023-11-21T02:54:10;100412.56;;;13.73;59.30
11648;BME280;5880;52.342;9.662;2023-11-21T02:56:35;100420.28;;;13.76;59.29
11648;BME280;5880;52.342;9.662;2023-11-21T02:59:01;100432.66;;;13.79;59.23
11648;BME280;5880;52.342;9.662;2023-11-21T03:01:27;100421.38;;;13.75;59.30
11648;BME280;5880;52.342;9.662;2023-11-21T03:03:53;100426.63;;;13.77;59.47
11648;BME280;5880;52.342;9.662;2023-11-21T03:06:20;100437.34;;;13.78;59.47
11648;BME280;5880;52.342;9.662;2023-11-21T03:08:46;100433.53;;;13.79;59.48
11648;BME280;5880;52.342;9.662;2023-11-21T03:11:12;100438.75;;;13.81;59.51
11648;BME280;5880;52.342;9.662;2023-11-21T03:13:40;100442.00;;;13.78;59.45
11648;BME280;5880;52.342;9.662;2023-11-21T03:16:11;100456.63;;;13.83;59.55
11648;BME280;5880;52.342;9.662;2023-11-21T03:18:38;100438.16;;;13.79;59.49
11648;BME280;5880;52.342;9.662;2023-11-21T03:21:05;100446.50;;;13.84;59.51
11648;BME280;5880;52.342;9.662;2023-11-21T03:23:31;100447.56;;;13.83;59.45
11648;BME280;5880;52.342;9.662;2023-11-21T03:25:57;100444.50;;;13.79;59.50
11648;BME280;5880;52.342;9.662;2023-11-21T03:28:23;100452.47;;;13.81;59.56
11648;BME280;5880;52.342;9.662;2023-11-21T03:30:49;100451.66;;;13.80;59.57
11648;BME280;5880;52.342;9.662;2023-11-21T03:33:15;100462.41;;;13.82;59.68
11648;BME280;5880;52.342;9.662;2023-11-21T03:35:41;100461.28;;;13.83;59.56
11648;BME280;5880;52.342;9.662;2023-11-21T03:38:07;100463.22;;;13.82;59.67
11648;BME280;5880;52.342;9.662;2023-11-21T03:40:35;100467.03;;;13.81;59.71
11648;BME280;5880;52.342;9.662;2023-11-21T03:43:01;100472.03;;;13.84;59.65
11648;BME280;5880;52.342;9.662;2023-11-21T03:45:26;100471.22;;;13.84;59.59
11648;BME280;5880;52.342;9.662;2023-11-21T03:47:52;100475.03;;;13.83;59.62
11648;BME280;5880;52.342;9.662;2023-11-21T03:50:17;100471.22;;;13.84;59.77
11648;BME280;5880;52.342;9.662;2023-11-21T03:52:43;100464.56;;;13.80;59.77
11648;BME280;5880;52.342;9.662;2023-11-21T03:55:09;100473.38;;;13.82;59.74
11648;BME280;5880;52.342;9.662;2023-11-21T03:57:36;100475.59;;;13.85;59.62
11648;BME280;5880;52.342;9.662;2023-11-21T04:00:03;100478.34;;;13.85;59.75
11648;BME280;5880;52.342;9.662;2023-11-21T04:02:29;100484.66;;;13.85;59.75
11648;BME280;5880;52.342;9.662;2023-11-21T04:04:57;100482.19;;;13.84;59.63
11648;BME280;5880;52.342;9.662;2023-11-21T04:07:22;100477.72;;;13.78;59.76
11648;BME280;5880;52.342;9.662;2023-11-21T04:09:48;100490.44;;;13.84;59.79
11648;BME280;5880;52.342;9.662;2023-11-21T04:12:14;100491.50;;;13.83;59.77
11648;BME280;5880;52.342;9.662;2023-11-21T04:14:40;100489.88;;;13.82;59.67
11648;BME280;5880;52.342;9.662;2023-11-21T04:17:05;100493.44;;;13.82;59.57
11648;BME280;5880;52.342;9.662;2023-11-21T04:19:31;100493.09;;;13.79;59.73
11648;BME280;5880;52.342;9.662;2023-11-21T04:21:57;100503.84;;;13.80;59.71
11648;BME280;5880;52.342;9.662;2023-11-21T04:24:23;100503.59;;;13.82;59.77
11648;BME280;5880;52.342;9.662;2023-11-21T04:26:48;100503.84;;;13.80;59.65
11648;BME280;5880;52.342;9.662;2023-11-21T04:29:14;100512.09;;;13.80;59.74
11648;BME280;5880;52.342;9.662;2023-11-21T04:31:40;100512.91;;;13.81;59.73
11648;BME280;5880;52.342;9.662;2023-11-21T04:34:06;100518.09;;;13.77;59.72
11648;BME280;5880;52.342;9.662;2023-11-21T04:36:32;100517.19;;;13.71;59.88
11648;BME280;5880;52.342;9.662;2023-11-21T04:38:58;100526.34;;;13.77;59.81
11648;BME280;5880;52.342;9.662;2023-11-21T04:41:24;100522.69;;;13.71;59.81
11648;BME280;5880;52.342;9.662;2023-11-21T04:43:49;100523.00;;;13.75;59.91
11648;BME280;5880;52.342;9.662;2023-11-21T04:46:15;100532.59;;;13.72;59.80
11648;BME280;5880;52.342;9.662;2023-11-21T04:48:41;100533.44;;;13.73;59.90
11648;BME280;5880;52.342;9.662;2023-11-21T04:51:06;100535.06;;;13.74;60.00
11648;BME280;5880;52.342;9.662;2023-11-21T04:53:32;100535.59;;;13.71;59.92
11648;BME280;5880;52.342;9.662;2023-11-21T04:55:58;100540.84;;;13.72;60.01
11648;BME280;5880;52.342;9.662;2023-11-21T04:58:24;100549.66;;;13.75;60.01
11648;BME280;5880;52.342;9.662;2023-11-21T05:00:49;100537.50;;;13.70;60.04
11648;BME280;5880;52.342;9.662;2023-11-21T05:03:15;100558.97;;;13.73;59.97
11648;BME280;5880;52.342;9.662;2023-11-21T05:05:41;100552.41;;;13.75;59.95
11648;BME280;5880;52.342;9.662;2023-11-21T05:08:06;100554.06;;;13.76;59.93
11648;BME280;5880;52.342;9.662;2023-11-21T05:10:32;100551.31;;;13.76;59.99
11648;BME280;5880;52.342;9.662;2023-11-21T05:12:58;100554.06;;;13.76;59.92
11648;BME280;5880;52.342;9.662;2023-11-21T05:15:24;100550.16;;;13.71;60.02
11648;BME280;5880;52.342;9.662;2023-11-21T05:17:50;100563.13;;;13.76;60.02
11648;BME280;5880;52.342;9.662;2023-11-21T05:20:18;100556.22;;;13.73;60.02
11648;BME280;5880;52.342;9.662;2023-11-21T05:22:47;100558.72;;;13.75;60.00
11648;BME280;5880;52.342;9.662;2023-11-21T05:25:16;100559.78;;;13.74;59.99
11648;BME280;5880;52.342;9.662;2023-11-21T05:27:47;100574.63;;;13.73;60.07
11648;BME280;5880;52.342;9.662;2023-11-21T05:30:14;100573.53;;;13.74;60.07
11648;BME280;5880;52.342;9.662;2023-11-21T05:32:41;100577.38;;;13.73;60.05
11648;BME280;5880;52.342;9.662;2023-11-21T05:35:10;100568.31;;;13.72;60.08
11648;BME280;5880;52.342;9.662;2023-11-21T05:37:41;100582.03;;;13.72;60.21
11648;BME280;5880;52.342;9.662;2023-11-21T05:40:08;100578.97;;;13.69;60.15
11648;BME280;5880;52.342;9.662;2023-11-21T05:42:35;100590.28;;;13.72;60.14
11648;BME280;5880;52.342;9.662;2023-11-21T05:45:02;100585.03;;;13.71;60.16
11648;BME280;5880;52.342;9.662;2023-11-21T05:47:48;100595.78;;;13.72;60.15
11648;BME280;5880;52.342;9.662;2023-11-21T05:50:16;100600.44;;;13.72;60.25
11648;BME280;5880;52.342;9.662;2023-11-21T05:52:47;100598.75;;;13.71;60.35
11648;BME280;5880;52.342;9.662;2023-11-21T05:55:13;100598.47;;;13.67;60.21
11648;BME280;5880;52.342;9.662;2023-11-21T05:57:41;100603.66;;;13.69;59.93
11648;BME280;5880;52.342;9.662;2023-11-21T06:00:11;100601.19;;;13.67;60.12
11648;BME280;5880;52.342;9.662;2023-11-21T06:02:46;100603.84;;;13.62;60.32
11648;BME280;5880;52.342;9.662;2023-11-21T06:05:12;100614.34;;;13.65;60.32
11648;BME280;5880;52.342;9.662;2023-11-21T06:07:38;100610.44;;;13.61;60.37
11648;BME280;5880;52.342;9.662;2023-11-21T06:10:05;100623.06;;;13.62;60.25
11648;BME280;5880;52.342;9.662;2023-11-21T06:12:33;100622.53;;;13.60;60.38
11648;BME280;5880;52.342;9.662;2023-11-21T06:15:05;100626.09;;;13.61;60.26
11648;BME280;5880;52.342;9.662;2023-11-21T06:17:32;100622.19;;;13.57;60.45
11648;BME280;5880;52.342;9.662;2023-11-21T06:19:59;100624.16;;;13.61;60.40
11648;BME280;5880;52.342;9.662;2023-11-21T06:22:26;100634.34;;;13.61;60.25
11648;BME280;5880;52.342;9.662;2023-11-21T06:24:51;100644.22;;;13.62;60.27
11648;BME280;5880;52.342;9.662;2023-11-21T06:27:17;100633.22;;;13.62;60.42
11648;BME280;5880;52.342;9.662;2023-11-21T06:29:43;100643.97;;;13.63;60.36
11648;BME280;5880;52.342;9.662;2023-11-21T06:32:09;100645.63;;;13.64;60.41
11648;BME280;5880;52.342;9.662;2023-11-21T06:34:35;100651.13;;;13.64;60.43
11648;BME280;5880;52.342;9.662;2023-11-21T06:37:00;100655.19;;;13.62;60.42
11648;BME280;5880;52.342;9.662;2023-11-21T06:39:26;100662.38;;;13.63;60.31
11648;BME280;5880;52.342;9.662;2023-11-21T06:41:53;100673.59;;;13.61;60.50
11648;BME280;5880;52.342;9.662;2023-11-21T06:44:18;100662.53;;;13.56;60.39
11648;BME280;5880;52.342;9.662;2023-11-21T06:46:45;100671.38;;;13.58;60.50
11648;BME280;5880;52.342;9.662;2023-11-21T06:49:11;100676.34;;;13.61;60.52
11648;BME280;5880;52.342;9.662;2023-11-21T06:51:36;100683.75;;;13.61;60.40
11648;BME280;5880;52.342;9.662;2023-11-21T06:54:02;100684.84;;;13.60;60.40
11648;BME280;5880;52.342;9.662;2023-11-21T06:56:28;100684.25;;;13.58;60.41
11648;BME280;5880;52.342;9.662;2023-11-21T06:58:54;100701.88;;;13.62;60.46
11648;BME280;5880;52.342;9.662;2023-11-21T07:01:20;100712.06;;;13.61;60.41
11648;BME280;5880;52.342;9.662;2023-11-21T07:03:45;100719.69;;;13.59;60.35
11648;BME280;5880;52.342;9.662;2023-11-21T07:06:11;100720.69;;;13.53;60.20
11648;BME280;5880;52.342;9.662;2023-11-21T07:08:37;100722.97;;;13.39;60.12
11648;BME280;5880;52.342;9.662;2023-11-21T07:11:04;100737.16;;;13.36;60.03
11648;BME280;5880;52.342;9.662;2023-11-21T07:13:30;100733.28;;;13.20;59.98
11648;BME280;5880;52.342;9.662;2023-11-21T07:15:57;100740.00;;;13.13;59.94
11648;BME280;5880;52.342;9.662;2023-11-21T07:18:24;100748.88;;;13.03;60.11
11648;BME280;5880;52.342;9.662;2023-11-21T07:20:49;100747.63;;;12.94;60.23
11648;BME280;5880;52.342;9.662;2023-11-21T07:23:15;100748.84;;;12.86;60.35
11648;BME280;5880;52.342;9.662;2023-11-21T07:25:41;100751.97;;;12.78;60.18
11648;BME280;5880;52.342;9.662;2023-11-21T07:28:09;100756.44;;;12.67;60.16
11648;BME280;5880;52.342;9.662;2023-11-21T07:30:34;100757.28;;;12.56;60.39
11648;BME280;5880;52.342;9.662;2023-11-21T07:33:00;100773.63;;;12.51;60.24
11648;BME280;5880;52.342;9.662;2023-11-21T07:35:26;100770.66;;;12.40;60.21
11648;BME280;5880;52.342;9.662;2023-11-21T07:37:52;100781.16;;;12.32;60.28
11648;BME280;5880;52.342;9.662;2023-11-21T07:40:17;100780.31;;;12.31;60.74
11648;BME280;5880;52.342;9.662;2023-11-21T07:42:43;100797.25;;;12.28;60.69
11648;BME280;5880;52.342;9.662;2023-11-21T07:45:09;100787.00;;;12.23;60.30
11648;BME280;5880;52.342;9.662;2023-11-21T07:47:35;100794.03;;;12.19;60.51
11648;BME280;5880;52.342;9.662;2023-11-21T07:50:03;100795.34;;;12.17;60.58
11648;BME280;5880;52.342;9.662;2023-11-21T07:52:30;100798.34;;;12.15;60.69
11648;BME280;5880;52.342;9.662;2023-11-21T07:54:56;100797.75;;;12.13;60.65
11648;BME280;5880;52.342;9.662;2023-11-21T07:57:21;100806.41;;;12.10;60.61
11648;BME280;5880;52.342;9.662;2023-11-21T07:59:47;100815.72;;;12.09;60.42
11648;BME280;5880;52.342;9.662;2023-11-21T08:02:13;100823.34;;;12.07;60.61
11648;BME280;5880;52.342;9.662;2023-11-21T08:04:38;100828.22;;;12.05;60.60
11648;BME280;5880;52.342;9.662;2023-11-21T08:07:04;100833.09;;;12.03;60.73
11648;BME280;5880;52.342;9.662;2023-11-21T08:09:30;100836.09;;;12.01;60.78
11648;BME280;5880;52.342;9.662;2023-11-21T08:11:56;100832.75;;;11.99;60.58
11648;BME280;5880;52.342;9.662;2023-11-21T08:14:22;100832.84;;;11.93;60.46
11648;BME280;5880;52.342;9.662;2023-11-21T08:16:50;100848.47;;;11.92;60.75
11648;BME280;5880;52.342;9.662;2023-11-21T08:19:16;100849.34;;;11.86;60.84
11648;BME280;5880;52.342;9.662;2023-11-21T08:21:43;100864.91;;;11.92;60.97
11648;BME280;5880;52.342;9.662;2023-11-21T08:24:10;100870.13;;;11.94;60.96
11648;BME280;5880;52.342;9.662;2023-11-21T08:26:37;100871.19;;;11.93;60.73
11648;BME280;5880;52.342;9.662;2023-11-21T08:29:03;100875.84;;;11.92;60.73
11648;BME280;5880;52.342;9.662;2023-11-21T08:31:29;100876.06;;;11.91;60.68
11648;BME280;5880;52.342;9.662;2023-11-21T08:33:55;100874.66;;;11.88;60.75
11648;BME280;5880;52.342;9.662;2023-11-21T08:36:22;100873.81;;;11.88;60.82
11648;BME280;5880;52.342;9.662;2023-11-21T08:38:50;100881.22;;;11.87;60.89
11648;BME280;5880;52.342;9.662;2023-11-21T08:41:18;100875.78;;;11.80;60.93
11648;BME280;5880;52.342;9.662;2023-11-21T08:43:51;100882.94;;;11.81;60.97
11648;BME280;5880;52.342;9.662;2023-11-21T08:46:16;100879.84;;;11.78;60.95
11648;BME280;5880;52.342;9.662;2023-11-21T08:48:43;100877.94;;;11.78;61.51
11648;BME280;5880;52.342;9.662;2023-11-21T08:51:10;100894.13;;;11.80;61.15
11648;BME280;5880;52.342;9.662;2023-11-21T08:53:42;100893.66;;;11.83;61.34
11648;BME280;5880;52.342;9.662;2023-11-21T08:56:12;100905.44;;;11.83;61.18
11648;BME280;5880;52.342;9.662;2023-11-21T08:58:38;100895.78;;;11.81;61.18
11648;BME280;5880;52.342;9.662;2023-11-21T09:01:04;100913.66;;;11.83;60.97
11648;BME280;5880;52.342;9.662;2023-11-21T09:03:31;100905.78;;;11.75;61.08
11648;BME280;5880;52.342;9.662;2023-11-21T09:05:59;100919.84;;;11.79;61.25
11648;BME280;5880;52.342;9.662;2023-11-21T09:08:25;100917.91;;;11.79;61.10
11648;BME280;5880;52.342;9.662;2023-11-21T09:10:51;100915.44;;;11.78;61.37
11648;BME280;5880;52.342;9.662;2023-11-21T09:13:17;100933.00;;;11.89;61.20
11648;BME280;5880;52.342;9.662;2023-11-21T09:15:43;100925.38;;;11.91;61.25
11648;BME280;5880;52.342;9.662;2023-11-21T09:18:15;100936.72;;;11.94;60.84
11648;BME280;5880;52.342;9.662;2023-11-21T09:20:42;100943.03;;;11.95;60.75
11648;BME280;5880;52.342;9.662;2023-11-21T09:23:11;100954.59;;;11.97;60.81
11648;BME280;5880;52.342;9.662;2023-11-21T09:25:37;100955.41;;;11.97;60.77
11648;BME280;5880;52.342;9.662;2023-11-21T09:28:05;100952.91;;;11.96;60.67
11648;BME280;5880;52.342;9.662;2023-11-21T09:30:34;100961.72;;;11.98;60.48
11648;BME280;5880;52.342;9.662;2023-11-21T09:33:01;100973.28;;;12.00;60.55
11648;BME280;5880;52.342;9.662;2023-11-21T09:35:27;100972.19;;;12.01;60.58
11648;BME280;5880;52.342;9.662;2023-11-21T09:37:53;100967.19;;;11.98;60.63
11648;BME280;5880;52.342;9.662;2023-11-21T09:40:22;100980.69;;;11.99;60.21
11648;BME280;5880;52.342;9.662;2023-11-21T09:42:56;100992.38;;;12.07;60.43
11648;BME280;5880;52.342;9.662;2023-11-21T09:45:32;101000.38;;;12.08;60.26
11648;BME280;5880;52.342;9.662;2023-11-21T09:48:01;100998.47;;;12.09;60.49
11648;BME280;5880;52.342;9.662;2023-11-21T09:50:27;100991.06;;;12.09;60.21
11648;BME280;5880;52.342;9.662;2023-11-21T09:53:19;101005.38;;;12.11;60.24
11648;BME280;5880;52.342;9.662;2023-11-21T09:55:52;101007.28;;;12.11;60.22
11648;BME280;5880;52.342;9.662;2023-11-21T09:58:19;101013.94;;;12.15;60.18
11648;BME280;5880;52.342;9.662;2023-11-21T10:00:48;101015.38;;;12.17;60.49
11648;BME280;5880;52.342;9.662;2023-11-21T10:03:15;101031.97;;;12.22;59.97
11648;BME280;5880;52.342;9.662;2023-11-21T10:05:43;101021.72;;;12.18;60.17
11648;BME280;5880;52.342;9.662;2023-11-21T10:08:12;101019.59;;;12.20;60.03
11648;BME280;5880;52.342;9.662;2023-11-21T10:10:46;101026.13;;;12.19;59.87
11648;BME280;5880;52.342;9.662;2023-11-21T10:13:14;101024.22;;;12.19;60.10
11648;BME280;5880;52.342;9.662;2023-11-21T10:15:42;101023.47;;;12.12;59.79
11648;BME280;5880;52.342;9.662;2023-11-21T10:18:15;101029.25;;;12.22;59.99
11648;BME280;5880;52.342;9.662;2023-11-21T10:20:41;101044.59;;;12.23;60.17
11648;BME280;5880;52.342;9.662;2023-11-21T10:23:07;101038.28;;;12.23;59.66
11648;BME280;5880;52.342;9.662;2023-11-21T10:25:37;101048.91;;;12.31;59.79
11648;BME280;5880;52.342;9.662;2023-11-21T10:28:04;101055.00;;;12.33;59.49
11648;BME280;5880;52.342;9.662;2023-11-21T10:30:37;101039.03;;;12.30;59.50
11648;BME280;5880;52.342;9.662;2023-11-21T10:33:07;101057.66;;;12.40;59.65
11648;BME280;5880;52.342;9.662;2023-11-21T10:35:48;101051.25;;;12.46;59.66
11648;BME280;5880;52.342;9.662;2023-11-21T10:38:21;101051.47;;;12.44;59.81
11648;BME280;5880;52.342;9.662;2023-11-21T10:40:50;101051.59;;;12.50;59.42
11648;BME280;5880;52.342;9.662;2023-11-21T10:43:17;101052.16;;;12.40;59.00
11648;BME280;5880;52.342;9.662;2023-11-21T10:45:43;101073.88;;;12.41;58.85
11648;BME280;5880;52.342;9.662;2023-11-21T10:48:15;101068.25;;;12.36;58.88
11648;BME280;5880;52.342;9.662;2023-11-21T10:50:42;101063.22;;;12.33;59.18
11648;BME280;5880;52.342;9.662;2023-11-21T10:53:09;101080.66;;;12.39;58.98
11648;BME280;5880;52.342;9.662;2023-11-21T10:55:37;101082.09;;;12.41;59.00
11648;BME280;5880;52.342;9.662;2023-11-21T10:58:04;101086.06;;;12.45;58.71
11648;BME280;5880;52.342;9.662;2023-11-21T11:00:32;101087.47;;;12.48;59.07
11648;BME280;5880;52.342;9.662;2023-11-21T11:02:59;101086.41;;;12.49;58.98
11648;BME280;5880;52.342;9.662;2023-11-21T11:05:27;101089.97;;;12.50;58.96
11648;BME280;5880;52.342;9.662;2023-11-21T11:08:08;101093.31;;;12.52;58.77
11648;BME280;5880;52.342;9.662;2023-11-21T11:10:34;101092.50;;;12.51;58.38
11648;BME280;5880;52.342;9.662;2023-11-21T11:13:00;101091.88;;;12.49;58.29
11648;BME280;5880;52.342;9.662;2023-11-21T11:15:27;101091.53;;;12.45;58.81
11648;BME280;5880;52.342;9.662;2023-11-21T11:17:54;101096.88;;;12.52;58.45
11648;BME280;5880;52.342;9.662;2023-11-21T11:20:29;101097.28;;;12.56;58.55
11648;BME280;5880;52.342;9.662;2023-11-21T11:25:55;101103.09;;;12.59;58.36
11648;BME280;5880;52.342;9.662;2023-11-21T11:28:55;101103.38;;;12.58;58.67
11648;BME280;5880;52.342;9.662;2023-11-21T11:32:09;101108.47;;;12.54;58.62
11648;BME280;5880;52.342;9.662;2023-11-21T11:35:01;101112.41;;;12.58;58.40
11648;BME280;5880;52.342;9.662;2023-11-21T11:37:29;101112.91;;;12.55;58.66
11648;BME280;5880;52.342;9.662;2023-11-21T11:39:56;101105.72;;;12.54;58.61
11648;BME280;5880;52.342;9.662;2023-11-21T11:42:22;101115.28;;;12.63;58.40
11648;BME280;5880;52.342;9.662;2023-11-21T11:44:51;101116.03;;;12.71;58.41
11648;BME280;5880;52.342;9.662;2023-11-21T11:47:31;101118.31;;;12.74;58.56
11648;BME280;5880;52.342;9.662;2023-11-21T11:50:07;101130.59;;;12.83;58.56
11648;BME280;5880;52.342;9.662;2023-11-21T11:52:41;101118.19;;;12.80;58.30
11648;BME280;5880;52.342;9.662;2023-11-21T11:55:12;101133.72;;;12.86;58.26
11648;BME280;5880;52.342;9.662;2023-11-21T11:57:46;101140.63;;;12.89;58.29
11648;BME280;5880;52.342;9.662;2023-11-21T12:00:22;101131.59;;;12.88;58.00
11648;BME280;5880;52.342;9.662;2023-11-21T12:03:02;101146.72;;;12.91;58.10
11648;BME280;5880;52.342;9.662;2023-11-21T12:05:33;101147.81;;;12.90;58.03
11648;BME280;5880;52.342;9.662;2023-11-21T12:08:07;101141.13;;;12.86;57.78
11648;BME280;5880;52.342;9.662;2023-11-21T12:10:36;101147.31;;;12.81;57.55
11648;BME280;5880;52.342;9.662;2023-11-21T12:13:05;101141.81;;;12.81;57.65
11648;BME280;5880;52.342;9.662;2023-11-21T12:15:34;101141.56;;;12.83;57.90
11648;BME280;5880;52.342;9.662;2023-11-21T12:18:00;101143.25;;;12.84;57.94
11648;BME280;5880;52.342;9.662;2023-11-21T12:20:27;101151.84;;;12.87;57.83
11648;BME280;5880;52.342;9.662;2023-11-21T12:23:03;101156.88;;;12.91;57.76
11648;BME280;5880;52.342;9.662;2023-11-21T12:25:30;101159.63;;;12.91;57.71
11648;BME280;5880;52.342;9.662;2023-11-21T12:28:01;101165.09;;;12.91;57.67
11648;BME280;5880;52.342;9.662;2023-11-21T12:30:30;101171.66;;;12.89;57.26
11648;BME280;5880;52.342;9.662;2023-11-21T12:32:59;101166.25;;;12.83;57.47
11648;BME280;5880;52.342;9.662;2023-11-21T12:35:28;101172.22;;;12.80;56.97
11648;BME280;5880;52.342;9.662;2023-11-21T12:37:55;101177.97;;;12.78;57.05
11648;BME280;5880;52.342;9.662;2023-11-21T12:40:23;101180.31;;;12.75;57.07
11648;BME280;5880;52.342;9.662;2023-11-21T12:42:55;101187.72;;;12.74;57.15
11648;BME280;5880;52.342;9.662;2023-11-21T12:45:26;101193.19;;;12.74;56.99
11648;BME280;5880;52.342;9.662;2023-11-21T12:48:00;101185.66;;;12.70;56.99
11648;BME280;5880;52.342;9.662;2023-11-21T12:50:28;101195.69;;;12.76;57.19
11648;BME280;5880;52.342;9.662;2023-11-21T12:53:10;101196.06;;;12.79;57.19
11648;BME280;5880;52.342;9.662;2023-11-21T12:55:38;101198.44;;;12.76;57.06
11648;BME280;5880;52.342;9.662;2023-11-21T12:58:06;101198.22;;;12.77;57.00
11648;BME280;5880;52.342;9.662;2023-11-21T13:00:46;101200.00;;;12.72;57.28
11648;BME280;5880;52.342;9.662;2023-11-21T13:03:15;101200.00;;;12.72;57.08
11648;BME280;5880;52.342;9.662;2023-11-21T13:05:52;101200.81;;;12.72;57.21